sensor_id;sensor_type;location;lat;lon;timestamp;pressure;altitude;pressure_sealevel;temperature;humidity
46015;BME280;36844;51.898;-0.874;2023-04-07T00:00:57;100721.31;;;18.45;
46015;BME280;36844;51.898;-0.874;2023-04-07T00:03:22;100729.81;;;18.43;
46015;BME280;36844;51.898;-0.874;2023-04-07T00:05:47;100728.66;;;18.41;
46015;BME280;36844;51.898;-0.874;2023-04-07T00:08:12;100727.50;;;18.38;
46015;BME280;36844;51.898;-0.874;2023-04-07T00:10:38;100734.81;;;18.38;
46015;BME280;36844;51.898;-0.874;2023-04-07T00:13:03;100735.19;;;18.36;
46015;BME280;36844;51.898;-0.874;2023-04-07T00:15:28;100732.16;;;18.34;
46015;BME280;36844;51.898;-0.874;2023-04-07T00:17:53;100730.59;;;18.33;
46015;BME280;36844;51.898;-0.874;2023-04-07T00:20:19;100734.44;;;18.32;
46015;BME280;36844;51.898;-0.874;2023-04-07T00:22:44;100738.34;;;18.31;
46015;BME280;36844;51.898;-0.874;2023-04-07T00:25:09;100736.78;;;18.30;
46015;BME280;36844;51.898;-0.874;2023-04-07T00:27:35;100744.47;;;18.28;
46015;BME280;36844;51.898;-0.874;2023-04-07T00:30:00;100744.09;;;18.26;
46015;BME280;36844;51.898;-0.874;2023-04-07T00:32:26;100737.94;;;18.26;
46015;BME280;36844;51.898;-0.874;2023-04-07T00:34:51;100742.97;;;18.24;
46015;BME280;36844;51.898;-0.874;2023-04-07T00:37:16;100744.88;;;18.23;
46015;BME280;36844;51.898;-0.874;2023-04-07T00:39:43;100745.25;;;18.22;
46015;BME280;36844;51.898;-0.874;2023-04-07T00:42:08;100754.47;;;18.21;
46015;BME280;36844;51.898;-0.874;2023-04-07T00:44:33;100752.22;;;18.19;
46015;BME280;36844;51.898;-0.874;2023-04-07T00:46:58;100755.28;;;18.18;
46015;BME280;36844;51.898;-0.874;2023-04-07T00:49:24;100759.13;;;18.17;
46015;BME280;36844;51.898;-0.874;2023-04-07T00:51:52;100752.22;;;18.16;
46015;BME280;36844;51.898;-0.874;2023-04-07T00:54:17;100756.06;;;18.15;
46015;BME280;36844;51.898;-0.874;2023-04-07T00:56:42;100757.19;;;18.14;
46015;BME280;36844;51.898;-0.874;2023-04-07T00:59:08;100762.25;;;18.12;
46015;BME280;36844;51.898;-0.874;2023-04-07T01:01:43;100759.91;;;18.10;
46015;BME280;36844;51.898;-0.874;2023-04-07T01:04:53;100751.47;;;18.08;
46015;BME280;36844;51.898;-0.874;2023-04-07T01:07:00;100759.91;;;18.07;
46015;BME280;36844;51.898;-0.874;2023-04-07T01:09:36;100748.38;;;18.06;
46015;BME280;36844;51.898;-0.874;2023-04-07T01:14:28;100751.84;;;18.03;
46015;BME280;36844;51.898;-0.874;2023-04-07T01:16:55;100753.00;;;18.02;
46015;BME280;36844;51.898;-0.874;2023-04-07T01:19:35;100758.78;;;18.01;
46015;BME280;36844;51.898;-0.874;2023-04-07T01:22:02;100763.81;;;17.99;
46015;BME280;36844;51.898;-0.874;2023-04-07T01:26:58;100762.63;;;17.96;
46015;BME280;36844;51.898;-0.874;2023-04-07T01:29:34;100764.56;;;17.96;
46015;BME280;36844;51.898;-0.874;2023-04-07T01:32:01;100763.03;;;17.95;
46015;BME280;36844;51.898;-0.874;2023-04-07T01:34:28;100756.09;;;17.94;
46015;BME280;36844;51.898;-0.874;2023-04-07T01:36:54;100757.25;;;17.93;
46015;BME280;36844;51.898;-0.874;2023-04-07T01:39:20;100759.16;;;17.92;
46015;BME280;36844;51.898;-0.874;2023-04-07T01:41:45;100759.56;;;17.91;
46015;BME280;36844;51.898;-0.874;2023-04-07T01:44:11;100763.44;;;17.90;
46015;BME280;36844;51.898;-0.874;2023-04-07T01:46:37;100764.56;;;17.89;
46015;BME280;36844;51.898;-0.874;2023-04-07T01:49:02;100756.09;;;17.87;
46015;BME280;36844;51.898;-0.874;2023-04-07T01:51:28;100758.00;;;17.86;
46015;BME280;36844;51.898;-0.874;2023-04-07T01:53:55;100764.56;;;17.85;
46015;BME280;36844;51.898;-0.874;2023-04-07T01:56:20;100769.56;;;17.83;
46015;BME280;36844;51.898;-0.874;2023-04-07T01:58:45;100766.09;;;17.83;
46015;BME280;36844;51.898;-0.874;2023-04-07T02:01:10;100768.78;;;17.83;
46015;BME280;36844;51.898;-0.874;2023-04-07T02:03:42;100768.44;;;17.81;
46015;BME280;36844;51.898;-0.874;2023-04-07T02:06:08;100772.28;;;17.80;
46015;BME280;36844;51.898;-0.874;2023-04-07T02:08:36;100778.06;;;17.78;
46015;BME280;36844;51.898;-0.874;2023-04-07T02:11:03;100773.06;;;17.77;
46015;BME280;36844;51.898;-0.874;2023-04-07T02:13:29;100775.34;;;17.74;
46015;BME280;36844;51.898;-0.874;2023-04-07T02:15:55;100777.28;;;17.74;
46015;BME280;36844;51.898;-0.874;2023-04-07T02:18:20;100783.84;;;17.73;
46015;BME280;36844;51.898;-0.874;2023-04-07T02:20:46;100776.88;;;17.72;
46015;BME280;36844;51.898;-0.874;2023-04-07T02:23:12;100782.66;;;17.70;
46015;BME280;36844;51.898;-0.874;2023-04-07T02:25:37;100775.75;;;17.69;
46015;BME280;36844;51.898;-0.874;2023-04-07T02:28:03;100776.91;;;17.68;
46015;BME280;36844;51.898;-0.874;2023-04-07T02:30:29;100781.50;;;17.68;
46015;BME280;36844;51.898;-0.874;2023-04-07T02:32:54;100774.56;;;17.67;
46015;BME280;36844;51.898;-0.874;2023-04-07T02:35:20;100773.03;;;17.66;
46015;BME280;36844;51.898;-0.874;2023-04-07T02:37:45;100772.28;;;17.65;
46015;BME280;36844;51.898;-0.874;2023-04-07T02:40:11;100773.44;;;17.64;
46015;BME280;36844;51.898;-0.874;2023-04-07T02:42:36;100769.19;;;17.63;
46015;BME280;36844;51.898;-0.874;2023-04-07T02:45:05;100770.34;;;17.62;
46015;BME280;36844;51.898;-0.874;2023-04-07T02:47:30;100775.34;;;17.60;
46015;BME280;36844;51.898;-0.874;2023-04-07T02:49:55;100768.41;;;17.59;
46015;BME280;36844;51.898;-0.874;2023-04-07T02:52:21;100761.09;;;17.60;
46015;BME280;36844;51.898;-0.874;2023-04-07T02:54:46;100772.28;;;17.58;
46015;BME280;36844;51.898;-0.874;2023-04-07T02:57:11;100766.13;;;17.58;
46015;BME280;36844;51.898;-0.874;2023-04-07T02:59:38;100775.34;;;17.57;
46015;BME280;36844;51.898;-0.874;2023-04-07T03:02:03;100771.88;;;17.56;
46015;BME280;36844;51.898;-0.874;2023-04-07T03:04:29;100775.69;;;17.55;
46015;BME280;36844;51.898;-0.874;2023-04-07T03:06:54;100770.72;;;17.54;
46015;BME280;36844;51.898;-0.874;2023-04-07T03:09:20;100780.72;;;17.53;
46015;BME280;36844;51.898;-0.874;2023-04-07T03:11:45;100771.09;;;17.52;
46015;BME280;36844;51.898;-0.874;2023-04-07T03:14:11;100778.41;;;17.52;
46015;BME280;36844;51.898;-0.874;2023-04-07T03:16:36;100776.91;;;17.51;
46015;BME280;36844;51.898;-0.874;2023-04-07T03:19:01;100780.72;;;17.50;
46015;BME280;36844;51.898;-0.874;2023-04-07T03:21:26;100779.94;;;17.49;
46015;BME280;36844;51.898;-0.874;2023-04-07T03:23:53;100774.94;;;17.48;
46015;BME280;36844;51.898;-0.874;2023-04-07T03:26:18;100779.59;;;17.47;
46015;BME280;36844;51.898;-0.874;2023-04-07T03:28:43;100780.72;;;17.46;
46015;BME280;36844;51.898;-0.874;2023-04-07T03:31:08;100784.56;;;17.45;
46015;BME280;36844;51.898;-0.874;2023-04-07T03:33:34;100785.69;;;17.44;
46015;BME280;36844;51.898;-0.874;2023-04-07T03:35:59;100782.63;;;17.42;
46015;BME280;36844;51.898;-0.874;2023-04-07T03:38:25;100779.16;;;17.42;
46015;BME280;36844;51.898;-0.874;2023-04-07T03:40:50;100791.84;;;17.41;
46015;BME280;36844;51.898;-0.874;2023-04-07T03:43:15;100788.38;;;17.41;
46015;BME280;36844;51.898;-0.874;2023-04-07T03:45:40;100794.19;;;17.39;
46015;BME280;36844;51.898;-0.874;2023-04-07T03:48:06;100789.94;;;17.38;
46015;BME280;36844;51.898;-0.874;2023-04-07T03:50:36;100786.47;;;17.38;
46015;BME280;36844;51.898;-0.874;2023-04-07T03:53:01;100790.28;;;17.37;
46015;BME280;36844;51.898;-0.874;2023-04-07T03:55:26;100786.09;;;17.36;
46015;BME280;36844;51.898;-0.874;2023-04-07T03:57:51;100778.38;;;17.34;
46015;BME280;36844;51.898;-0.874;2023-04-07T04:00:17;100779.53;;;17.33;
46015;BME280;36844;51.898;-0.874;2023-04-07T04:02:42;100789.94;;;17.35;
46015;BME280;36844;51.898;-0.874;2023-04-07T04:05:07;100794.16;;;17.32;
46015;BME280;36844;51.898;-0.874;2023-04-07T04:07:33;100792.63;;;17.31;
46015;BME280;36844;51.898;-0.874;2023-04-07T04:09:58;100789.16;;;17.31;
46015;BME280;36844;51.898;-0.874;2023-04-07T04:12:23;100799.16;;;17.30;
46015;BME280;36844;51.898;-0.874;2023-04-07T04:14:48;100792.19;;;17.29;
46015;BME280;36844;51.898;-0.874;2023-04-07T04:17:13;100796.09;;;17.28;
46015;BME280;36844;51.898;-0.874;2023-04-07T04:19:39;100794.53;;;17.27;
46015;BME280;36844;51.898;-0.874;2023-04-07T04:22:04;100794.88;;;17.26;
46015;BME280;36844;51.898;-0.874;2023-04-07T04:24:29;100796.44;;;17.27;
46015;BME280;36844;51.898;-0.874;2023-04-07T04:26:55;100799.50;;;17.25;
46015;BME280;36844;51.898;-0.874;2023-04-07T04:29:20;100794.53;;;17.24;
46015;BME280;36844;51.898;-0.874;2023-04-07T04:31:46;100801.81;;;17.23;
46015;BME280;36844;51.898;-0.874;2023-04-07T04:34:11;100802.97;;;17.22;
46015;BME280;36844;51.898;-0.874;2023-04-07T04:36:36;100804.13;;;17.21;
46015;BME280;36844;51.898;-0.874;2023-04-07T04:39:03;100806.03;;;17.21;
46015;BME280;36844;51.898;-0.874;2023-04-07T04:41:28;100807.19;;;17.20;
46015;BME280;36844;51.898;-0.874;2023-04-07T04:43:53;100812.94;;;17.18;
46015;BME280;36844;51.898;-0.874;2023-04-07T04:46:18;100814.84;;;17.18;
46015;BME280;36844;51.898;-0.874;2023-04-07T04:48:43;100822.94;;;17.18;
46015;BME280;36844;51.898;-0.874;2023-04-07T04:51:09;100819.88;;;17.16;
46015;BME280;36844;51.898;-0.874;2023-04-07T04:53:34;100819.09;;;17.15;
46015;BME280;36844;51.898;-0.874;2023-04-07T04:56:00;100835.25;;;17.15;
46015;BME280;36844;51.898;-0.874;2023-04-07T04:58:25;100836.38;;;17.14;
46015;BME280;36844;51.898;-0.874;2023-04-07T05:00:54;100834.84;;;17.13;
46015;BME280;36844;51.898;-0.874;2023-04-07T05:03:23;100839.84;;;17.11;
46015;BME280;36844;51.898;-0.874;2023-04-07T05:05:50;100844.44;;;17.11;
46015;BME280;36844;51.898;-0.874;2023-04-07T05:08:15;100842.91;;;17.10;
46015;BME280;36844;51.898;-0.874;2023-04-07T05:10:41;100849.47;;;17.09;
46015;BME280;36844;51.898;-0.874;2023-04-07T05:13:06;100847.50;;;17.09;
46015;BME280;36844;51.898;-0.874;2023-04-07T05:15:31;100854.06;;;17.08;
46015;BME280;36844;51.898;-0.874;2023-04-07T05:17:56;100849.81;;;17.07;
46015;BME280;36844;51.898;-0.874;2023-04-07T05:20:21;100853.66;;;17.06;
46015;BME280;36844;51.898;-0.874;2023-04-07T05:22:47;100857.53;;;17.05;
46015;BME280;36844;51.898;-0.874;2023-04-07T05:25:12;100858.66;;;17.04;
46015;BME280;36844;51.898;-0.874;2023-04-07T05:27:37;100860.56;;;17.04;
46015;BME280;36844;51.898;-0.874;2023-04-07T05:30:02;100862.47;;;17.03;
46015;BME280;36844;51.898;-0.874;2023-04-07T05:32:28;100869.78;;;17.03;
46015;BME280;36844;51.898;-0.874;2023-04-07T05:34:53;100870.94;;;17.02;
46015;BME280;36844;51.898;-0.874;2023-04-07T05:37:18;100870.53;;;17.00;
46015;BME280;36844;51.898;-0.874;2023-04-07T05:39:44;100870.53;;;17.00;
46015;BME280;36844;51.898;-0.874;2023-04-07T05:42:09;100877.06;;;16.99;
46015;BME280;36844;51.898;-0.874;2023-04-07T05:44:35;100876.31;;;16.98;
46015;BME280;36844;51.898;-0.874;2023-04-07T05:47:00;100880.16;;;16.97;
46015;BME280;36844;51.898;-0.874;2023-04-07T05:49:25;100878.59;;;16.96;
46015;BME280;36844;51.898;-0.874;2023-04-07T05:51:50;100877.81;;;16.96;
46015;BME280;36844;51.898;-0.874;2023-04-07T05:54:16;100885.88;;;16.96;
46015;BME280;36844;51.898;-0.874;2023-04-07T05:56:41;100880.50;;;16.96;
46015;BME280;36844;51.898;-0.874;2023-04-07T05:59:06;100884.75;;;16.97;
46015;BME280;36844;51.898;-0.874;2023-04-07T06:01:31;100897.44;;;16.96;
46015;BME280;36844;51.898;-0.874;2023-04-07T06:03:57;100913.19;;;16.98;
46015;BME280;36844;51.898;-0.874;2023-04-07T06:06:22;100906.66;;;16.99;
46015;BME280;36844;51.898;-0.874;2023-04-07T06:08:48;100909.75;;;17.01;
46015;BME280;36844;51.898;-0.874;2023-04-07T06:11:13;100901.31;;;17.02;
46015;BME280;36844;51.898;-0.874;2023-04-07T06:13:38;100899.78;;;17.05;
46015;BME280;36844;51.898;-0.874;2023-04-07T06:16:04;100907.50;;;17.06;
46015;BME280;36844;51.898;-0.874;2023-04-07T06:18:30;100905.19;;;17.08;
46015;BME280;36844;51.898;-0.874;2023-04-07T06:20:55;100910.19;;;17.10;
46015;BME280;36844;51.898;-0.874;2023-04-07T06:23:21;100912.50;;;17.11;
46015;BME280;36844;51.898;-0.874;2023-04-07T06:25:46;100910.59;;;17.15;
46015;BME280;36844;51.898;-0.874;2023-04-07T06:28:15;100911.41;;;17.19;
46015;BME280;36844;51.898;-0.874;2023-04-07T06:30:41;100912.19;;;17.23;
46015;BME280;36844;51.898;-0.874;2023-04-07T06:33:06;100913.75;;;17.28;
46015;BME280;36844;51.898;-0.874;2023-04-07T06:35:31;100916.03;;;17.33;
46015;BME280;36844;51.898;-0.874;2023-04-07T06:37:56;100928.38;;;17.37;
46015;BME280;36844;51.898;-0.874;2023-04-07T06:40:22;100928.81;;;17.43;
46015;BME280;36844;51.898;-0.874;2023-04-07T06:42:47;100933.09;;;17.47;
46015;BME280;36844;51.898;-0.874;2023-04-07T06:45:12;100939.19;;;17.51;
46015;BME280;36844;51.898;-0.874;2023-04-07T06:47:37;100933.09;;;17.54;
46015;BME280;36844;51.898;-0.874;2023-04-07T06:50:03;100940.78;;;17.59;
46015;BME280;36844;51.898;-0.874;2023-04-07T06:52:28;100935.03;;;17.64;
46015;BME280;36844;51.898;-0.874;2023-04-07T06:54:53;100943.50;;;17.66;
46015;BME280;36844;51.898;-0.874;2023-04-07T06:57:19;100948.53;;;17.71;
46015;BME280;36844;51.898;-0.874;2023-04-07T06:59:44;100947.00;;;17.74;
46015;BME280;36844;51.898;-0.874;2023-04-07T07:02:10;100949.72;;;17.77;
46015;BME280;36844;51.898;-0.874;2023-04-07T07:04:35;100957.03;;;17.81;
46015;BME280;36844;51.898;-0.874;2023-04-07T07:07:00;100967.06;;;17.84;
46015;BME280;36844;51.898;-0.874;2023-04-07T07:09:26;100968.19;;;17.86;
46015;BME280;36844;51.898;-0.874;2023-04-07T07:11:51;100968.59;;;17.88;
46015;BME280;36844;51.898;-0.874;2023-04-07T07:14:17;100968.97;;;17.90;
46015;BME280;36844;51.898;-0.874;2023-04-07T07:16:42;100967.84;;;17.91;
46015;BME280;36844;51.898;-0.874;2023-04-07T07:19:07;100973.63;;;17.93;
46015;BME280;36844;51.898;-0.874;2023-04-07T07:21:33;100969.75;;;17.94;
46015;BME280;36844;51.898;-0.874;2023-04-07T07:23:58;100969.38;;;17.96;
46015;BME280;36844;51.898;-0.874;2023-04-07T07:26:23;100975.56;;;17.96;
46015;BME280;36844;51.898;-0.874;2023-04-07T07:28:50;100970.56;;;17.98;
46015;BME280;36844;51.898;-0.874;2023-04-07T07:31:15;100967.06;;;17.98;
46015;BME280;36844;51.898;-0.874;2023-04-07T07:33:40;100977.09;;;18.01;
46015;BME280;36844;51.898;-0.874;2023-04-07T07:36:07;100976.34;;;18.00;
46015;BME280;36844;51.898;-0.874;2023-04-07T07:38:33;100978.63;;;18.02;
46015;BME280;36844;51.898;-0.874;2023-04-07T07:40:58;100982.88;;;18.03;
46015;BME280;36844;51.898;-0.874;2023-04-07T07:43:23;100983.66;;;18.03;
46015;BME280;36844;51.898;-0.874;2023-04-07T07:45:48;100982.50;;;18.04;
46015;BME280;36844;51.898;-0.874;2023-04-07T07:48:14;100980.59;;;18.05;
46015;BME280;36844;51.898;-0.874;2023-04-07T07:50:39;100984.03;;;18.05;
46015;BME280;36844;51.898;-0.874;2023-04-07T07:53:05;100984.81;;;18.06;
46015;BME280;36844;51.898;-0.874;2023-04-07T07:55:30;100989.81;;;18.07;
46015;BME280;36844;51.898;-0.874;2023-04-07T07:57:55;100987.50;;;18.06;
46015;BME280;36844;51.898;-0.874;2023-04-07T08:00:20;100995.22;;;18.07;
46015;BME280;36844;51.898;-0.874;2023-04-07T08:02:47;100993.28;;;18.08;
46015;BME280;36844;51.898;-0.874;2023-04-07T08:05:13;100997.13;;;18.10;
46015;BME280;36844;51.898;-0.874;2023-04-07T08:07:38;100996.00;;;18.11;
46015;BME280;36844;51.898;-0.874;2023-04-07T08:10:03;100989.81;;;18.11;
46015;BME280;36844;51.898;-0.874;2023-04-07T08:12:29;100990.59;;;18.11;
46015;BME280;36844;51.898;-0.874;2023-04-07T08:14:54;100987.13;;;18.11;
46015;BME280;36844;51.898;-0.874;2023-04-07T08:17:19;100992.16;;;18.12;
46015;BME280;36844;51.898;-0.874;2023-04-07T08:19:44;100986.78;;;18.12;
46015;BME280;36844;51.898;-0.874;2023-04-07T08:22:10;100992.16;;;18.12;
46015;BME280;36844;51.898;-0.874;2023-04-07T08:24:35;100990.25;;;18.13;
46015;BME280;36844;51.898;-0.874;2023-04-07T08:27:00;100995.63;;;18.13;
46015;BME280;36844;51.898;-0.874;2023-04-07T08:29:25;101001.78;;;18.13;
46015;BME280;36844;51.898;-0.874;2023-04-07T08:31:51;101010.63;;;18.14;
46015;BME280;36844;51.898;-0.874;2023-04-07T08:34:16;101009.88;;;18.13;
46015;BME280;36844;51.898;-0.874;2023-04-07T08:36:42;101001.78;;;18.13;
46015;BME280;36844;51.898;-0.874;2023-04-07T08:39:08;101007.16;;;18.13;
46015;BME280;36844;51.898;-0.874;2023-04-07T08:41:37;101008.34;;;18.12;
46015;BME280;36844;51.898;-0.874;2023-04-07T08:44:02;101006.41;;;18.13;
46015;BME280;36844;51.898;-0.874;2023-04-07T08:46:28;101011.03;;;18.12;
46015;BME280;36844;51.898;-0.874;2023-04-07T08:48:54;101015.66;;;18.12;
46015;BME280;36844;51.898;-0.874;2023-04-07T08:51:26;101018.34;;;18.12;
46015;BME280;36844;51.898;-0.874;2023-04-07T08:53:53;101002.53;;;18.10;
46015;BME280;36844;51.898;-0.874;2023-04-07T08:56:22;101012.94;;;18.12;
46015;BME280;36844;51.898;-0.874;2023-04-07T08:58:47;101005.22;;;18.10;
46015;BME280;36844;51.898;-0.874;2023-04-07T09:01:13;101007.16;;;18.10;
46015;BME280;36844;51.898;-0.874;2023-04-07T09:03:39;101001.78;;;18.10;
46015;BME280;36844;51.898;-0.874;2023-04-07T09:06:05;101002.53;;;18.10;
46015;BME280;36844;51.898;-0.874;2023-04-07T09:08:31;101001.78;;;18.10;
46015;BME280;36844;51.898;-0.874;2023-04-07T09:10:56;101000.25;;;18.09;
46015;BME280;36844;51.898;-0.874;2023-04-07T09:13:22;101006.78;;;18.08;
46015;BME280;36844;51.898;-0.874;2023-04-07T09:15:48;101007.16;;;18.10;
46015;BME280;36844;51.898;-0.874;2023-04-07T09:18:13;100998.69;;;18.08;
46015;BME280;36844;51.898;-0.874;2023-04-07T09:20:58;101006.78;;;18.08;
46015;BME280;36844;51.898;-0.874;2023-04-07T09:23:41;101003.28;;;18.07;
46015;BME280;36844;51.898;-0.874;2023-04-07T09:28:42;101007.91;;;18.07;
46015;BME280;36844;51.898;-0.874;2023-04-07T09:31:07;101006.78;;;18.08;
46015;BME280;36844;51.898;-0.874;2023-04-07T09:33:32;101008.69;;;18.07;
46015;BME280;36844;51.898;-0.874;2023-04-07T09:35:58;100999.47;;;18.08;
46015;BME280;36844;51.898;-0.874;2023-04-07T09:38:23;100999.47;;;18.08;
46015;BME280;36844;51.898;-0.874;2023-04-07T09:41:03;100997.13;;;18.07;
46015;BME280;36844;51.898;-0.874;2023-04-07T09:43:29;100997.91;;;18.07;
46015;BME280;36844;51.898;-0.874;2023-04-07T09:46:05;100996.00;;;18.08;
46015;BME280;36844;51.898;-0.874;2023-04-07T09:48:30;100996.00;;;18.08;
46015;BME280;36844;51.898;-0.874;2023-04-07T09:51:03;100996.00;;;18.08;
46015;BME280;36844;51.898;-0.874;2023-04-07T09:53:50;100991.38;;;18.08;
46015;BME280;36844;51.898;-0.874;2023-04-07T09:56:17;100993.28;;;18.08;
46015;BME280;36844;51.898;-0.874;2023-04-07T09:58:43;100991.72;;;18.07;
46015;BME280;36844;51.898;-0.874;2023-04-07T10:01:09;100992.50;;;18.07;
46015;BME280;36844;51.898;-0.874;2023-04-07T10:03:35;100993.28;;;18.08;
46015;BME280;36844;51.898;-0.874;2023-04-07T10:06:00;100999.47;;;18.08;
46015;BME280;36844;51.898;-0.874;2023-04-07T10:08:26;100986.00;;;18.08;
46015;BME280;36844;51.898;-0.874;2023-04-07T10:10:51;100987.91;;;18.08;
46015;BME280;36844;51.898;-0.874;2023-04-07T10:13:17;100988.28;;;18.06;
46015;BME280;36844;51.898;-0.874;2023-04-07T10:15:43;100990.97;;;18.06;
46015;BME280;36844;51.898;-0.874;2023-04-07T10:18:08;101004.47;;;18.06;
46015;BME280;36844;51.898;-0.874;2023-04-07T10:20:34;100995.59;;;18.06;
46015;BME280;36844;51.898;-0.874;2023-04-07T10:23:08;100996.75;;;18.05;
46015;BME280;36844;51.898;-0.874;2023-04-07T10:25:37;100996.75;;;18.05;
46015;BME280;36844;51.898;-0.874;2023-04-07T10:28:05;100995.22;;;18.04;
46015;BME280;36844;51.898;-0.874;2023-04-07T10:30:31;100987.91;;;18.04;
46015;BME280;36844;51.898;-0.874;2023-04-07T10:32:56;100993.66;;;18.03;
46015;BME280;36844;51.898;-0.874;2023-04-07T10:35:22;100988.25;;;18.03;
46015;BME280;36844;51.898;-0.874;2023-04-07T10:40:31;100994.81;;;18.02;
46015;BME280;36844;51.898;-0.874;2023-04-07T10:42:57;100994.06;;;18.01;
46015;BME280;36844;51.898;-0.874;2023-04-07T10:48:10;100990.59;;;18.01;
46015;BME280;36844;51.898;-0.874;2023-04-07T10:50:36;100990.59;;;18.01;
46015;BME280;36844;51.898;-0.874;2023-04-07T10:53:05;100990.59;;;18.01;
46015;BME280;36844;51.898;-0.874;2023-04-07T11:03:25;100997.09;;;17.96;
46015;BME280;36844;51.898;-0.874;2023-04-07T11:05:51;100994.41;;;17.96;
46015;BME280;36844;51.898;-0.874;2023-04-07T11:11:36;100985.53;;;17.96;
46015;BME280;36844;51.898;-0.874;2023-04-07T11:14:03;100988.63;;;17.94;
46015;BME280;36844;51.898;-0.874;2023-04-07T11:16:35;100983.25;;;17.94;
46015;BME280;36844;51.898;-0.874;2023-04-07T11:19:01;100982.47;;;17.94;
46015;BME280;36844;51.898;-0.874;2023-04-07T11:21:26;100984.78;;;17.95;
46015;BME280;36844;51.898;-0.874;2023-04-07T11:23:51;100980.94;;;17.96;
46015;BME280;36844;51.898;-0.874;2023-04-07T11:26:17;100984.81;;;17.99;
46015;BME280;36844;51.898;-0.874;2023-04-07T11:28:46;100982.84;;;17.99;
46015;BME280;36844;51.898;-0.874;2023-04-07T11:31:11;100984.03;;;18.02;
46015;BME280;36844;51.898;-0.874;2023-04-07T11:33:36;100990.94;;;18.03;
46015;BME280;36844;51.898;-0.874;2023-04-07T11:36:04;100995.59;;;18.06;
46015;BME280;36844;51.898;-0.874;2023-04-07T11:38:34;100990.97;;;18.06;
46015;BME280;36844;51.898;-0.874;2023-04-07T11:41:08;100985.59;;;18.10;
46015;BME280;36844;51.898;-0.874;2023-04-07T11:43:33;100989.47;;;18.12;
46015;BME280;36844;51.898;-0.874;2023-04-07T11:46:07;100987.91;;;18.15;
46015;BME280;36844;51.898;-0.874;2023-04-07T11:48:33;100991.75;;;18.17;
46015;BME280;36844;51.898;-0.874;2023-04-07T11:50:59;100984.84;;;18.20;
46015;BME280;36844;51.898;-0.874;2023-04-07T11:53:28;100988.69;;;18.22;
46015;BME280;36844;51.898;-0.874;2023-04-07T11:55:58;100980.25;;;18.24;
46015;BME280;36844;51.898;-0.874;2023-04-07T11:58:23;100980.59;;;18.26;
46015;BME280;36844;51.898;-0.874;2023-04-07T12:00:52;100987.13;;;18.28;
46015;BME280;36844;51.898;-0.874;2023-04-07T12:03:18;100983.31;;;18.29;
46015;BME280;36844;51.898;-0.874;2023-04-07T12:05:43;100983.72;;;18.31;
46015;BME280;36844;51.898;-0.874;2023-04-07T12:08:09;100987.91;;;18.32;
46015;BME280;36844;51.898;-0.874;2023-04-07T12:10:34;100984.88;;;18.34;
46015;BME280;36844;51.898;-0.874;2023-04-07T12:13:00;100985.22;;;18.36;
46015;BME280;36844;51.898;-0.874;2023-04-07T12:15:26;100977.91;;;18.36;
46015;BME280;36844;51.898;-0.874;2023-04-07T12:17:51;100982.16;;;18.37;
46015;BME280;36844;51.898;-0.874;2023-04-07T12:20:16;100985.63;;;18.38;
46015;BME280;36844;51.898;-0.874;2023-04-07T12:22:42;100975.63;;;18.38;
46015;BME280;36844;51.898;-0.874;2023-04-07T12:25:07;100976.38;;;18.39;
46015;BME280;36844;51.898;-0.874;2023-04-07T12:27:32;100984.47;;;18.39;
46015;BME280;36844;51.898;-0.874;2023-04-07T12:29:58;100984.47;;;18.39;
46015;BME280;36844;51.898;-0.874;2023-04-07T12:32:23;100981.78;;;18.39;
46015;BME280;36844;51.898;-0.874;2023-04-07T12:34:48;100975.22;;;18.40;
46015;BME280;36844;51.898;-0.874;2023-04-07T12:37:13;100974.47;;;18.39;
46015;BME280;36844;51.898;-0.874;2023-04-07T12:39:39;100975.22;;;18.40;
46015;BME280;36844;51.898;-0.874;2023-04-07T12:42:04;100980.59;;;18.40;
46015;BME280;36844;51.898;-0.874;2023-04-07T12:44:29;100983.31;;;18.40;
46015;BME280;36844;51.898;-0.874;2023-04-07T12:46:55;100980.59;;;18.40;
46015;BME280;36844;51.898;-0.874;2023-04-07T12:49:20;100987.94;;;18.39;
46015;BME280;36844;51.898;-0.874;2023-04-07T12:51:45;100982.56;;;18.39;
46015;BME280;36844;51.898;-0.874;2023-04-07T12:54:11;100982.94;;;18.38;
46015;BME280;36844;51.898;-0.874;2023-04-07T12:56:36;100987.16;;;18.39;
46015;BME280;36844;51.898;-0.874;2023-04-07T12:59:01;100986.00;;;18.36;
46015;BME280;36844;51.898;-0.874;2023-04-07T13:01:26;100980.25;;;18.34;
46015;BME280;36844;51.898;-0.874;2023-04-07T13:03:52;100981.03;;;18.31;
46015;BME280;36844;51.898;-0.874;2023-04-07T13:06:17;100974.06;;;18.27;
46015;BME280;36844;51.898;-0.874;2023-04-07T13:08:43;100971.38;;;18.23;
46015;BME280;36844;51.898;-0.874;2023-04-07T13:11:08;100974.84;;;18.20;
46015;BME280;36844;51.898;-0.874;2023-04-07T13:13:33;100981.38;;;18.16;
46015;BME280;36844;51.898;-0.874;2023-04-07T13:15:58;100984.84;;;18.13;
46015;BME280;36844;51.898;-0.874;2023-04-07T13:18:24;100985.59;;;18.10;
46015;BME280;36844;51.898;-0.874;2023-04-07T13:20:49;100985.59;;;18.06;
46015;BME280;36844;51.898;-0.874;2023-04-07T13:23:14;100984.03;;;18.02;
46015;BME280;36844;51.898;-0.874;2023-04-07T13:25:40;100980.16;;;17.99;
46015;BME280;36844;51.898;-0.874;2023-04-07T13:28:05;100988.25;;;17.96;
46015;BME280;36844;51.898;-0.874;2023-04-07T13:30:31;100980.16;;;17.92;
46015;BME280;36844;51.898;-0.874;2023-04-07T13:32:56;100981.72;;;17.90;
46015;BME280;36844;51.898;-0.874;2023-04-07T13:35:21;100982.44;;;17.87;
46015;BME280;36844;51.898;-0.874;2023-04-07T13:37:47;100981.66;;;17.83;
46015;BME280;36844;51.898;-0.874;2023-04-07T13:40:12;100978.19;;;17.78;
46015;BME280;36844;51.898;-0.874;2023-04-07T13:42:38;100982.41;;;17.72;
46015;BME280;36844;51.898;-0.874;2023-04-07T13:45:03;100977.81;;;17.69;
46015;BME280;36844;51.898;-0.874;2023-04-07T13:47:28;100977.00;;;17.65;
46015;BME280;36844;51.898;-0.874;2023-04-07T13:49:57;100974.31;;;17.62;